Time;durP1;ratioP1;P1;durP2;ratioP2;P2;SDS_P1;SDS_P2;PMS_P1;PMS_P2;Temp;Humidity;BMP_temperature;BMP_pressure;BME280_temperature;BME280_humidity;BME280_pressure;Samples;Min_cycle;Max_cycle;Signal;HPM_P1;HPM_P2
2022/01/18 00:00:52;;;;;;;0.30;0.20;;;3.70;99.90;;;;;;4917234;29;20895;-78
2022/01/18 00:03:19;;;;;;;0.60;0.57;;;3.60;99.90;;;;;;4917409;29;20455;-78
2022/01/18 00:05:49;;;;;;;0.30;0.30;;;3.60;99.90;;;;;;4931165;29;20871;-78
2022/01/18 00:08:16;;;;;;;0.40;0.40;;;3.60;99.90;;;;;;4935929;29;20510;-78
2022/01/18 00:10:44;;;;;;;0.30;0.20;;;3.60;99.90;;;;;;4936120;29;20440;-78
2022/01/18 00:13:37;;;;;;;0.30;0.30;;;3.60;99.90;;;;;;4936082;29;20455;-77
2022/01/18 00:16:12;;;;;;;0.30;0.30;;;3.50;99.90;;;;;;4936121;29;20455;-77
2022/01/18 00:18:40;;;;;;;0.30;0.30;;;3.50;99.90;;;;;;4936160;29;20542;-77
2022/01/18 00:21:22;;;;;;;0.70;0.57;;;3.60;99.90;;;;;;4936007;29;20495;-76
2022/01/18 00:23:51;;;;;;;0.30;0.20;;;3.60;99.90;;;;;;4935980;29;20479;-76
2022/01/18 00:26:18;;;;;;;0.30;0.20;;;3.60;99.90;;;;;;4935880;29;20456;-77
2022/01/18 00:28:52;;;;;;;0.93;0.40;;;3.70;99.90;;;;;;4935986;29;20489;-77
2022/01/18 00:31:36;;;;;;;0.30;0.20;;;3.70;99.90;;;;;;4936319;29;20431;-77
2022/01/18 00:34:08;;;;;;;0.30;0.20;;;3.70;99.90;;;;;;4935933;29;20863;-77
2022/01/18 00:36:41;;;;;;;0.30;0.20;;;3.70;99.90;;;;;;4935645;29;20794;-77
2022/01/18 00:39:10;;;;;;;0.30;0.30;;;3.70;99.90;;;;;;4935931;29;20444;-77
2022/01/18 00:41:38;;;;;;;0.30;0.20;;;3.70;99.90;;;;;;4935819;29;20494;-77
2022/01/18 00:44:07;;;;;;;0.30;0.20;;;3.70;99.90;;;;;;4935790;29;20471;-77
2022/01/18 00:46:35;;;;;;;0.30;0.30;;;3.80;99.90;;;;;;4936101;29;20447;-77
2022/01/18 00:49:03;;;;;;;0.30;0.20;;;3.80;99.90;;;;;;4936075;29;20470;-78
2022/01/18 00:51:33;;;;;;;0.30;0.20;;;3.80;99.90;;;;;;4935848;29;20463;-78
2022/01/18 00:54:00;;;;;;;0.80;0.80;;;3.80;99.90;;;;;;4935547;29;20503;-77
2022/01/18 00:56:30;;;;;;;0.30;0.20;;;3.90;99.90;;;;;;4935823;29;20842;-77
2022/01/18 00:58:57;;;;;;;0.30;0.20;;;3.80;99.90;;;;;;4935432;29;20951;-77
2022/01/18 01:01:28;;;;;;;0.30;0.23;;;3.80;99.90;;;;;;4935839;29;20479;-77
2022/01/18 01:03:59;;;;;;;0.30;0.20;;;3.80;99.90;;;;;;4935707;29;20470;-78
2022/01/18 01:06:26;;;;;;;0.30;0.30;;;3.90;99.90;;;;;;4935731;29;20443;-78
2022/01/18 01:08:53;;;;;;;0.30;0.30;;;3.90;99.90;;;;;;4935675;29;20455;-77
2022/01/18 01:11:21;;;;;;;0.30;0.30;;;3.90;99.90;;;;;;4935668;29;20447;-77
2022/01/18 01:13:50;;;;;;;0.30;0.30;;;3.90;99.90;;;;;;4935543;29;20482;-77
2022/01/18 01:19:28;;;;;;;0.30;0.20;;;3.90;99.90;;;;;;4928517;29;20502;-77
2022/01/18 01:36:19;;;;;;;0.30;0.20;;;3.80;99.90;;;;;;4938824;29;20458;-77
2022/01/18 01:42:02;;;;;;;0.30;0.30;;;3.80;99.90;;;;;;4938696;29;20837;-77
2022/01/18 01:44:43;;;;;;;0.30;0.20;;;3.80;99.90;;;;;;4938565;29;20475;-77
2022/01/18 01:47:11;;;;;;;0.50;0.50;;;3.80;99.90;;;;;;4938316;29;20439;-78
2022/01/18 01:49:39;;;;;;;0.30;0.20;;;3.80;99.90;;;;;;4938564;29;20455;-78
2022/01/18 01:52:10;;;;;;;1.33;0.40;;;3.80;99.90;;;;;;4938735;29;20447;-78
2022/01/18 01:54:37;;;;;;;0.40;0.40;;;3.80;99.90;;;;;;4938222;29;20495;-78
2022/01/18 01:57:05;;;;;;;1.03;1.03;;;3.80;99.90;;;;;;4938105;29;20451;-78
2022/01/18 01:59:32;;;;;;;0.47;0.47;;;3.80;99.90;;;;;;4938017;29;20939;-78
2022/01/18 02:01:58;;;;;;;0.40;0.30;;;3.80;99.90;;;;;;4938228;29;20485;-78
2022/01/18 02:04:25;;;;;;;0.30;0.30;;;3.80;99.90;;;;;;4938380;29;20475;-78
2022/01/18 02:06:52;;;;;;;0.30;0.30;;;3.80;99.90;;;;;;4938289;29;20827;-79
2022/01/18 02:09:21;;;;;;;0.30;0.30;;;3.80;99.90;;;;;;4938236;29;20807;-76
2022/01/18 02:11:49;;;;;;;0.33;0.27;;;3.80;99.90;;;;;;4938380;29;20474;-77
2022/01/18 02:14:19;;;;;;;0.40;0.40;;;3.80;99.90;;;;;;4938015;29;20832;-76
2022/01/18 02:22:16;;;;;;;0.30;0.23;;;3.80;99.90;;;;;;4937744;29;20462;-78
2022/01/18 02:24:43;;;;;;;0.30;0.20;;;3.90;99.90;;;;;;4937810;29;20475;-78
2022/01/18 02:27:10;;;;;;;0.30;0.20;;;3.90;99.90;;;;;;4937853;29;20821;-78
2022/01/18 02:29:37;;;;;;;0.30;0.20;;;3.90;99.90;;;;;;4937776;29;20459;-78
2022/01/18 02:32:05;;;;;;;0.40;0.40;;;3.90;99.90;;;;;;4937715;29;20451;-78
2022/01/18 02:34:32;;;;;;;0.30;0.20;;;3.90;99.90;;;;;;4936605;29;20474;-77
2022/01/18 02:36:59;;;;;;;0.40;0.40;;;3.90;99.90;;;;;;4937333;29;20461;-77
2022/01/18 02:39:29;;;;;;;0.30;0.20;;;3.80;99.90;;;;;;4937610;29;20455;-77
2022/01/18 02:41:58;;;;;;;0.40;0.40;;;3.90;99.90;;;;;;4937561;29;20474;-77
2022/01/18 02:44:26;;;;;;;0.30;0.30;;;3.90;99.90;;;;;;4937133;29;21004;-77
2022/01/18 02:46:53;;;;;;;0.30;0.30;;;3.90;99.90;;;;;;4937435;29;20451;-77
2022/01/18 02:49:20;;;;;;;0.40;0.40;;;3.90;99.90;;;;;;4937404;29;20459;-78
2022/01/18 02:51:47;;;;;;;0.30;0.20;;;3.90;99.90;;;;;;4937220;29;20452;-78
2022/01/18 02:54:17;;;;;;;0.30;0.30;;;4.00;99.90;;;;;;4936997;29;20991;-78
2022/01/18 02:56:50;;;;;;;0.30;0.20;;;4.00;99.90;;;;;;4937765;29;20936;-78
2022/01/18 02:59:25;;;;;;;0.40;0.30;;;4.00;99.90;;;;;;4937075;29;20916;-77
2022/01/18 03:04:38;;;;;;;0.30;0.20;;;4.00;99.90;;;;;;4937179;29;20445;-77
2022/01/18 03:07:06;;;;;;;0.30;0.30;;;4.00;99.90;;;;;;4937080;29;20455;-77
2022/01/18 03:09:33;;;;;;;0.30;0.20;;;4.10;99.90;;;;;;4937022;29;20466;-77
2022/01/18 03:12:01;;;;;;;0.30;0.30;;;4.10;99.90;;;;;;4937229;29;20455;-77
2022/01/18 03:14:28;;;;;;;1.17;1.17;;;4.00;99.90;;;;;;4936931;29;20848;-77
2022/01/18 03:16:55;;;;;;;0.30;0.30;;;4.10;99.90;;;;;;4936900;29;20455;-77
2022/01/18 03:19:21;;;;;;;0.30;0.30;;;4.10;99.90;;;;;;4936861;29;20466;-77
2022/01/18 03:21:49;;;;;;;0.30;0.30;;;4.10;99.90;;;;;;4936800;29;20509;-77
2022/01/18 03:24:33;;;;;;;1.40;1.40;;;4.10;99.90;;;;;;4936773;29;20479;-77
2022/01/18 03:29:45;;;;;;;0.50;0.50;;;4.10;99.90;;;;;;4936607;29;20507;-76
2022/01/18 03:32:12;;;;;;;0.87;0.87;;;4.10;99.90;;;;;;4936448;29;20439;-76
2022/01/18 03:34:38;;;;;;;0.40;0.40;;;4.10;99.90;;;;;;4936257;29;20858;-76
2022/01/18 03:37:05;;;;;;;0.40;0.40;;;4.10;99.90;;;;;;4936903;29;20472;-77
2022/01/18 03:39:32;;;;;;;0.50;0.40;;;4.00;99.90;;;;;;4936247;29;20447;-78
2022/01/18 03:42:26;;;;;;;0.30;0.30;;;4.10;99.90;;;;;;4936461;29;20490;-78
2022/01/18 03:44:50;;;;;;;0.30;0.20;;;4.10;99.90;;;;;;4935706;29;21042;-78
2022/01/18 03:47:19;;;;;;;0.30;0.20;;;4.10;99.90;;;;;;4936473;29;20455;-77
2022/01/18 03:49:46;;;;;;;0.40;0.40;;;4.10;99.90;;;;;;4936420;29;20459;-77
2022/01/18 03:52:12;;;;;;;1.37;1.27;;;4.10;99.90;;;;;;4936078;29;20939;-77
2022/01/18 03:54:43;;;;;;;0.30;0.20;;;4.00;99.90;;;;;;4936172;29;20487;-77
2022/01/18 03:57:11;;;;;;;0.53;0.53;;;4.00;99.90;;;;;;4936625;29;20444;-77
2022/01/18 03:59:38;;;;;;;0.77;0.77;;;4.00;99.90;;;;;;4936307;29;20462;-78
2022/01/18 04:02:06;;;;;;;0.40;0.30;;;4.10;99.90;;;;;;4936216;29;20858;-78
2022/01/18 04:04:33;;;;;;;0.30;0.20;;;4.00;99.90;;;;;;4935870;29;21010;-77
2022/01/18 04:07:00;;;;;;;0.30;0.30;;;4.00;99.90;;;;;;4936188;29;20463;-78
2022/01/18 04:09:28;;;;;;;0.67;0.40;;;4.00;99.90;;;;;;4936325;29;20451;-78
2022/01/18 04:11:54;;;;;;;0.30;0.20;;;4.00;99.90;;;;;;4936107;29;20985;-78
2022/01/18 04:14:23;;;;;;;0.30;0.30;;;4.00;99.90;;;;;;4935773;29;20846;-76
2022/01/18 04:17:02;;;;;;;0.30;0.20;;;4.00;99.90;;;;;;4936186;29;20459;-77
2022/01/18 04:25:50;;;;;;;1.67;1.57;;;4.00;99.90;;;;;;4936130;29;20471;-77
2022/01/18 04:27:59;;;;;;;0.90;0.90;;;4.00;99.90;;;;;;4935678;29;20466;-77
2022/01/18 04:30:27;;;;;;;1.73;1.37;;;4.00;99.90;;;;;;4936045;29;20446;-78
2022/01/18 04:32:54;;;;;;;0.77;0.37;;;4.00;99.90;;;;;;4935678;29;20975;-78
2022/01/18 04:35:20;;;;;;;0.30;0.20;;;3.90;99.90;;;;;;4935910;29;20478;-78
2022/01/18 04:37:47;;;;;;;0.30;0.30;;;4.00;99.90;;;;;;4935902;29;20807;-78
2022/01/18 04:40:15;;;;;;;0.30;0.20;;;4.00;99.90;;;;;;4935905;29;20477;-78
2022/01/18 04:43:00;;;;;;;0.30;0.20;;;4.00;99.90;;;;;;4935819;29;20573;-78
2022/01/18 04:48:27;;;;;;;0.30;0.30;;;4.00;99.90;;;;;;4936281;29;20460;-78
2022/01/18 04:50:54;;;;;;;0.40;0.40;;;4.00;99.90;;;;;;4935850;29;20507;-77
2022/01/18 04:53:21;;;;;;;0.30;0.30;;;4.00;99.90;;;;;;4935974;29;20451;-77
2022/01/18 04:55:53;;;;;;;0.30;0.30;;;4.00;99.90;;;;;;4935678;29;20479;-77
2022/01/18 04:58:20;;;;;;;0.30;0.30;;;4.10;99.90;;;;;;4939102;29;20447;-77
2022/01/18 05:00:50;;;;;;;0.30;0.30;;;4.10;99.90;;;;;;4939174;29;20443;-78
2022/01/18 05:03:17;;;;;;;0.87;0.87;;;4.00;99.90;;;;;;4939837;29;20521;-78
2022/01/18 05:05:44;;;;;;;0.30;0.20;;;4.00;99.90;;;;;;4939339;29;20470;-78
2022/01/18 05:08:13;;;;;;;0.33;0.30;;;4.00;99.90;;;;;;4938957;29;20830;-78
2022/01/18 05:10:41;;;;;;;0.30;0.30;;;4.00;99.90;;;;;;4939234;29;20451;-78
2022/01/18 05:13:18;;;;;;;0.30;0.30;;;4.00;99.90;;;;;;4938893;29;20970;-78
2022/01/18 05:15:50;;;;;;;1.70;1.60;;;4.00;99.90;;;;;;4939446;29;20443;-77
2022/01/18 05:21:19;;;;;;;0.73;0.60;;;4.00;99.90;;;;;;4939119;29;20419;-77
2022/01/18 05:23:46;;;;;;;0.30;0.30;;;4.00;99.90;;;;;;4938869;29;20487;-76
2022/01/18 05:26:13;;;;;;;0.63;0.63;;;4.00;99.90;;;;;;4938956;29;20457;-77
2022/01/18 05:28:40;;;;;;;0.30;0.23;;;4.00;99.90;;;;;;4938620;29;20954;-77
2022/01/18 05:31:06;;;;;;;0.40;0.27;;;4.00;99.90;;;;;;4938834;29;20551;-77
2022/01/18 05:33:34;;;;;;;0.40;0.40;;;4.00;99.90;;;;;;4938776;29;20463;-78
2022/01/18 05:36:01;;;;;;;0.30;0.20;;;4.00;99.90;;;;;;4938781;29;20451;-78
2022/01/18 05:38:29;;;;;;;0.30;0.30;;;4.00;99.90;;;;;;4938717;29;20455;-78
2022/01/18 05:40:56;;;;;;;0.57;0.57;;;4.10;99.90;;;;;;4938656;29;20541;-78
2022/01/18 05:43:23;;;;;;;0.40;0.40;;;4.10;99.90;;;;;;4938183;29;20998;-78
2022/01/18 05:45:49;;;;;;;0.30;0.20;;;4.10;99.90;;;;;;4938600;29;20475;-78
2022/01/18 05:48:16;;;;;;;0.33;0.33;;;4.10;99.90;;;;;;4938563;29;20462;-77
2022/01/18 05:50:44;;;;;;;0.30;0.30;;;4.10;99.90;;;;;;4938491;29;20456;-78
2022/01/18 05:53:11;;;;;;;0.30;0.30;;;4.00;99.90;;;;;;4938331;29;20443;-78
2022/01/18 05:55:38;;;;;;;3.80;0.50;;;4.00;99.90;;;;;;4938025;29;20494;-78
2022/01/18 05:58:05;;;;;;;0.67;0.37;;;4.00;99.90;;;;;;4938404;29;20464;-78
2022/01/18 06:00:32;;;;;;;0.30;0.30;;;4.00;99.90;;;;;;4938335;29;20455;-77
2022/01/18 06:03:11;;;;;;;0.40;0.40;;;4.10;99.90;;;;;;4937876;29;20534;-77
2022/01/18 06:08:23;;;;;;;0.40;0.40;;;4.10;99.90;;;;;;4938085;29;20481;-77
2022/01/18 06:10:50;;;;;;;0.37;0.30;;;4.10;99.90;;;;;;4938083;29;20826;-77
2022/01/18 06:13:16;;;;;;;0.30;0.20;;;4.00;99.90;;;;;;4937957;29;20451;-77
2022/01/18 06:15:44;;;;;;;0.30;0.20;;;4.00;99.90;;;;;;4937730;29;20802;-77
2022/01/18 06:18:10;;;;;;;0.30;0.30;;;4.00;99.90;;;;;;4937965;29;20459;-77
2022/01/18 06:20:40;;;;;;;0.40;0.30;;;4.10;99.90;;;;;;4937946;29;20455;-77
2022/01/18 06:23:06;;;;;;;0.30;0.27;;;4.00;99.90;;;;;;4937849;29;20482;-77
2022/01/18 06:25:35;;;;;;;0.30;0.30;;;4.00;99.90;;;;;;4937816;29;20472;-77
2022/01/18 06:28:01;;;;;;;0.40;0.40;;;4.00;99.90;;;;;;4937562;29;20454;-77
2022/01/18 06:30:28;;;;;;;0.40;0.40;;;4.00;99.90;;;;;;4937795;29;20455;-76
2022/01/18 06:32:55;;;;;;;0.30;0.20;;;4.00;99.90;;;;;;4937539;29;20939;-77
2022/01/18 06:35:21;;;;;;;0.30;0.20;;;4.00;99.90;;;;;;4937677;29;20832;-77
2022/01/18 06:37:48;;;;;;;0.30;0.20;;;4.00;99.90;;;;;;4937645;29;20451;-77
2022/01/18 06:40:16;;;;;;;0.47;0.47;;;4.00;99.90;;;;;;4937594;29;20466;-78
2022/01/18 06:42:44;;;;;;;0.30;0.30;;;4.00;99.90;;;;;;4937499;29;20479;-78
2022/01/18 06:45:12;;;;;;;0.30;0.30;;;3.90;99.90;;;;;;4937452;29;20482;-77
2022/01/18 06:47:39;;;;;;;0.83;0.40;;;3.90;99.90;;;;;;4937475;29;20458;-77
2022/01/18 06:50:08;;;;;;;0.30;0.30;;;3.90;99.90;;;;;;4937097;29;20955;-77
2022/01/18 06:52:34;;;;;;;0.30;0.30;;;4.00;99.90;;;;;;4937367;29;20443;-77
2022/01/18 06:55:02;;;;;;;0.60;0.60;;;4.10;99.90;;;;;;4936815;29;20491;-78
2022/01/18 06:57:28;;;;;;;0.60;0.40;;;4.00;99.90;;;;;;4937290;29;20534;-78
2022/01/18 06:59:57;;;;;;;0.30;0.30;;;4.10;99.90;;;;;;4937186;29;20455;-78
2022/01/18 07:02:23;;;;;;;2.10;0.90;;;4.20;99.90;;;;;;4936854;29;20955;-78
2022/01/18 07:04:50;;;;;;;0.50;0.50;;;4.20;99.90;;;;;;4937133;29;20479;-78
2022/01/18 07:07:17;;;;;;;1.00;1.00;;;4.20;99.90;;;;;;4937122;29;20454;-77
2022/01/18 07:09:44;;;;;;;0.43;0.40;;;4.10;99.90;;;;;;4937104;29;20455;-77
2022/01/18 07:12:12;;;;;;;0.77;0.77;;;4.00;99.90;;;;;;4937020;29;20447;-77
2022/01/18 07:14:40;;;;;;;0.30;0.20;;;4.00;99.90;;;;;;4936946;29;20527;-77
2022/01/18 07:17:08;;;;;;;0.30;0.20;;;4.00;99.90;;;;;;4936934;29;20450;-77
2022/01/18 07:19:35;;;;;;;0.67;0.50;;;3.90;99.90;;;;;;4936390;29;20461;-75
2022/01/18 07:22:02;;;;;;;0.40;0.30;;;3.90;99.90;;;;;;4936864;29;20451;-75
2022/01/18 07:24:41;;;;;;;1.20;1.20;;;3.90;99.90;;;;;;4936661;29;20494;-75
2022/01/18 07:27:09;;;;;;;0.40;0.40;;;3.90;99.90;;;;;;4936841;29;20576;-75
2022/01/18 07:29:37;;;;;;;0.30;0.30;;;4.00;99.90;;;;;;4936750;29;20447;-76
2022/01/18 07:32:05;;;;;;;0.47;0.47;;;3.90;99.90;;;;;;4936701;29;20546;-76
2022/01/18 07:34:35;;;;;;;0.30;0.30;;;3.90;99.90;;;;;;4936620;29;20467;-76
2022/01/18 07:37:02;;;;;;;0.87;0.47;;;3.80;99.90;;;;;;4936626;29;20455;-76
2022/01/18 07:39:28;;;;;;;0.30;0.30;;;3.80;99.90;;;;;;4936635;29;20455;-76
2022/01/18 07:41:55;;;;;;;0.60;0.47;;;3.90;99.90;;;;;;4936549;29;20447;-76
2022/01/18 07:44:22;;;;;;;0.60;0.40;;;3.90;99.90;;;;;;4936094;29;21002;-76
2022/01/18 07:46:48;;;;;;;1.53;0.40;;;3.80;99.90;;;;;;4936488;29;20454;-77
2022/01/18 07:49:15;;;;;;;0.30;0.30;;;3.90;99.90;;;;;;4936491;29;20455;-77
2022/01/18 07:51:43;;;;;;;0.30;0.30;;;3.90;99.90;;;;;;4936426;29;20447;-77
2022/01/18 07:54:10;;;;;;;0.50;0.30;;;3.90;99.90;;;;;;4936107;29;20474;-77
2022/01/18 07:56:41;;;;;;;0.30;0.30;;;3.90;99.90;;;;;;4936114;29;20522;-77
2022/01/18 07:59:08;;;;;;;0.40;0.30;;;3.90;99.90;;;;;;4936540;29;20459;-77
2022/01/18 08:01:34;;;;;;;0.30;0.30;;;3.90;99.90;;;;;;4936356;29;20470;-77
2022/01/18 08:04:01;;;;;;;0.40;0.40;;;3.90;99.90;;;;;;4936159;29;20491;-77
2022/01/18 08:06:28;;;;;;;0.50;0.50;;;4.00;99.90;;;;;;4936245;29;20435;-77
2022/01/18 08:08:56;;;;;;;0.40;0.40;;;4.10;99.90;;;;;;4936265;29;20436;-77
2022/01/18 08:11:23;;;;;;;0.30;0.30;;;4.20;99.90;;;;;;4935878;29;20835;-77
2022/01/18 08:13:50;;;;;;;0.70;0.70;;;4.20;99.90;;;;;;4936093;29;20471;-78
2022/01/18 08:16:34;;;;;;;0.40;0.40;;;4.10;99.90;;;;;;4936117;29;20459;-78
2022/01/18 08:19:03;;;;;;;0.30;0.30;;;4.10;99.90;;;;;;4936150;29;20435;-78
2022/01/18 08:21:30;;;;;;;0.30;0.30;;;4.10;99.90;;;;;;4936075;29;20459;-78
2022/01/18 08:23:58;;;;;;;0.30;0.20;;;4.10;99.90;;;;;;4935889;29;20506;-77
2022/01/18 08:26:24;;;;;;;0.30;0.30;;;4.20;99.90;;;;;;4935723;29;20450;-77
2022/01/18 08:28:51;;;;;;;0.30;0.30;;;4.30;99.90;;;;;;4935967;29;20459;-77
2022/01/18 08:31:18;;;;;;;0.60;0.60;;;4.30;99.90;;;;;;4938101;29;20453;-77
2022/01/18 08:33:45;;;;;;;1.17;0.70;;;4.40;99.90;;;;;;4939816;29;20467;-77
2022/01/18 08:36:11;;;;;;;0.30;0.30;;;4.50;99.90;;;;;;4939598;29;20528;-78
2022/01/18 08:38:39;;;;;;;1.10;0.53;;;4.70;99.90;;;;;;4939811;29;20454;-78
2022/01/18 08:41:08;;;;;;;0.57;0.57;;;4.90;99.90;;;;;;4939777;29;20490;-78
2022/01/18 08:43:37;;;;;;;0.30;0.30;;;5.10;99.90;;;;;;4939556;29;20498;-78
2022/01/18 08:46:05;;;;;;;0.30;0.30;;;5.20;99.90;;;;;;4939403;29;21050;-78
2022/01/18 08:48:32;;;;;;;0.60;0.60;;;5.30;99.90;;;;;;4939351;29;20943;-78
2022/01/18 08:51:00;;;;;;;1.47;0.73;;;5.50;99.90;;;;;;4939636;29;20447;-78
2022/01/18 08:53:27;;;;;;;0.50;0.50;;;5.70;99.90;;;;;;4939358;29;20482;-78
2022/01/18 08:55:54;;;;;;;2.00;0.73;;;5.70;99.90;;;;;;4939202;29;20489;-78
2022/01/18 08:58:22;;;;;;;0.60;0.60;;;6.00;99.90;;;;;;4939510;29;20450;-77
2022/01/18 09:00:49;;;;;;;0.40;0.40;;;6.10;99.90;;;;;;4939464;29;20486;-79
2022/01/18 09:03:16;;;;;;;0.73;0.50;;;6.40;99.90;;;;;;4939261;29;20497;-79
2022/01/18 09:05:44;;;;;;;0.47;0.47;;;6.90;99.90;;;;;;4939050;29;20947;-79
2022/01/18 09:08:12;;;;;;;0.40;0.40;;;7.70;99.90;;;;;;4939079;29;20479;-79
2022/01/18 09:10:39;;;;;;;0.40;0.40;;;8.10;99.90;;;;;;4939829;29;20458;-79
2022/01/18 09:13:06;;;;;;;0.30;0.30;;;8.20;99.90;;;;;;4939266;29;20431;-79
2022/01/18 09:15:34;;;;;;;0.37;0.33;;;8.20;99.90;;;;;;4939079;29;20474;-79
2022/01/18 09:18:01;;;;;;;0.30;0.23;;;8.00;99.90;;;;;;4939014;29;20466;-79
2022/01/18 09:20:30;;;;;;;0.50;0.50;;;7.80;99.90;;;;;;4939016;29;20447;-79
2022/01/18 09:22:57;;;;;;;0.50;0.50;;;7.50;99.90;;;;;;4938970;29;20850;-80
2022/01/18 09:25:28;;;;;;;1.87;1.73;;;7.20;99.90;;;;;;4938590;29;20887;-79
2022/01/18 09:27:55;;;;;;;2.07;1.90;;;7.10;99.90;;;;;;4938886;29;20455;-79
2022/01/18 09:30:25;;;;;;;0.30;0.30;;;7.10;99.90;;;;;;4938653;29;20436;-77
2022/01/18 09:32:54;;;;;;;0.40;0.30;;;7.00;99.90;;;;;;4938873;29;20450;-77
2022/01/18 09:35:21;;;;;;;0.30;0.30;;;6.90;99.90;;;;;;4938431;29;20958;-77
2022/01/18 09:37:49;;;;;;;0.63;0.40;;;6.90;99.90;;;;;;4938799;29;20455;-78
2022/01/18 09:40:19;;;;;;;0.40;0.40;;;7.00;99.90;;;;;;4938758;29;20479;-78
2022/01/18 09:42:46;;;;;;;0.40;0.40;;;7.10;99.90;;;;;;4938153;29;20538;-78
2022/01/18 09:45:15;;;;;;;1.10;1.00;;;7.10;99.90;;;;;;4938618;29;20538;-78
2022/01/18 09:47:45;;;;;;;0.70;0.50;;;6.90;99.90;;;;;;4938328;29;20443;-78
2022/01/18 09:50:15;;;;;;;0.93;0.80;;;6.70;99.90;;;;;;4939223;29;20479;-78
2022/01/18 09:52:42;;;;;;;1.53;1.43;;;6.70;99.90;;;;;;4938557;29;20439;-78
2022/01/18 09:55:10;;;;;;;0.93;0.77;;;6.90;99.90;;;;;;4937891;29;20836;-78
2022/01/18 09:57:37;;;;;;;0.40;0.30;;;7.20;99.90;;;;;;4938387;29;20455;-78
2022/01/18 10:00:05;;;;;;;0.30;0.20;;;7.30;99.90;;;;;;4938143;29;20439;-79
2022/01/18 10:02:32;;;;;;;0.60;0.60;;;7.20;99.90;;;;;;4938367;29;20534;-77
2022/01/18 10:05:00;;;;;;;0.30;0.30;;;7.00;99.90;;;;;;4938193;29;20486;-77
2022/01/18 10:07:36;;;;;;;0.30;0.30;;;7.30;99.90;;;;;;4938267;29;20477;-77
2022/01/18 10:10:06;;;;;;;0.50;0.40;;;8.20;99.90;;;;;;4938678;29;20951;-77
2022/01/18 10:12:33;;;;;;;1.00;0.90;;;9.80;99.90;;;;;;4938191;29;20466;-78
2022/01/18 10:15:03;;;;;;;0.50;0.40;;;11.30;99.90;;;;;;4938076;29;20471;-78
2022/01/18 10:17:31;;;;;;;2.83;1.13;;;11.80;99.90;;;;;;4937805;29;20439;-78
2022/01/18 10:20:05;;;;;;;1.80;0.53;;;11.00;99.90;;;;;;4938040;29;20446;-78
2022/01/18 10:22:40;;;;;;;0.30;0.30;;;9.60;99.90;;;;;;4937942;29;20442;-77
2022/01/18 10:25:15;;;;;;;0.30;0.20;;;8.80;99.90;;;;;;4937775;29;20505;-77
2022/01/18 10:27:42;;;;;;;0.50;0.50;;;7.70;99.90;;;;;;4937577;29;20441;-77
2022/01/18 10:30:15;;;;;;;0.70;0.70;;;7.20;99.90;;;;;;4937827;29;20463;-78
2022/01/18 10:32:43;;;;;;;0.40;0.40;;;6.80;99.90;;;;;;4937822;29;20447;-78
2022/01/18 10:35:11;;;;;;;0.50;0.37;;;6.30;99.90;;;;;;4937391;29;21005;-78
2022/01/18 10:37:42;;;;;;;0.30;0.30;;;6.10;99.90;;;;;;4937719;29;20439;-78
2022/01/18 10:40:14;;;;;;;0.50;0.50;;;5.90;99.90;;;;;;4937703;29;20443;-78
2022/01/18 10:42:44;;;;;;;0.67;0.47;;;5.80;99.90;;;;;;4937333;29;20435;-78
2022/01/18 10:45:14;;;;;;;0.50;0.50;;;5.80;99.90;;;;;;4937125;29;21090;-77
2022/01/18 10:47:50;;;;;;;0.83;0.83;;;5.80;99.90;;;;;;4937544;29;20439;-77
2022/01/18 10:50:19;;;;;;;0.33;0.33;;;5.80;99.90;;;;;;4937599;29;20798;-77
2022/01/18 10:52:47;;;;;;;0.50;0.43;;;5.80;99.90;;;;;;4937469;29;20442;-77
2022/01/18 10:55:19;;;;;;;0.30;0.30;;;5.90;99.90;;;;;;4936116;29;20498;-77
2022/01/18 10:57:47;;;;;;;1.03;1.03;;;6.20;99.90;;;;;;4937024;29;20456;-77
2022/01/18 11:00:17;;;;;;;1.07;0.50;;;6.30;99.90;;;;;;4937028;29;20431;-77
2022/01/18 11:02:46;;;;;;;0.30;0.30;;;6.50;99.90;;;;;;4937302;29;20431;-77
2022/01/18 11:05:15;;;;;;;2.50;0.50;;;6.40;99.90;;;;;;4936827;29;21017;-77
2022/01/18 11:07:43;;;;;;;0.50;0.50;;;6.50;99.90;;;;;;4937177;29;20436;-76
2022/01/18 11:10:12;;;;;;;0.30;0.30;;;6.30;99.90;;;;;;4937152;29;20439;-77
2022/01/18 11:12:53;;;;;;;0.67;0.67;;;6.20;99.90;;;;;;4937103;29;20483;-77
2022/01/18 11:15:22;;;;;;;0.60;0.53;;;6.10;99.90;;;;;;4936980;29;20510;-76
2022/01/18 11:17:56;;;;;;;0.30;0.30;;;6.10;99.90;;;;;;4936715;29;20855;-76
2022/01/18 11:20:23;;;;;;;0.40;0.30;;;6.30;99.90;;;;;;4936645;29;20446;-77
2022/01/18 11:22:51;;;;;;;0.57;0.57;;;6.60;99.90;;;;;;4936622;29;20930;-77
2022/01/18 11:25:21;;;;;;;0.30;0.30;;;6.70;99.90;;;;;;4936354;29;20506;-77
2022/01/18 11:27:51;;;;;;;0.30;0.30;;;6.80;99.90;;;;;;4936726;29;20439;-77
2022/01/18 11:30:19;;;;;;;0.50;0.50;;;6.80;99.90;;;;;;4936758;29;20805;-77
2022/01/18 11:32:46;;;;;;;0.30;0.30;;;6.80;99.90;;;;;;4936713;29;20439;-77
2022/01/18 11:35:18;;;;;;;0.30;0.30;;;6.80;99.90;;;;;;4936629;29;20475;-77
2022/01/18 11:37:57;;;;;;;1.83;0.97;;;6.80;99.90;;;;;;4936628;29;20435;-77
2022/01/18 11:40:26;;;;;;;0.30;0.30;;;6.60;99.90;;;;;;4936297;29;20443;-77
2022/01/18 11:42:56;;;;;;;0.37;0.37;;;6.60;99.90;;;;;;4936594;29;20446;-76
2022/01/18 11:45:30;;;;;;;0.50;0.50;;;6.40;99.90;;;;;;4936376;29;20494;-76
2022/01/18 11:48:00;;;;;;;0.40;0.40;;;6.30;99.90;;;;;;4936533;29;20443;-79
2022/01/18 11:50:28;;;;;;;0.30;0.30;;;6.10;99.90;;;;;;4936501;29;20444;-77
2022/01/18 11:53:45;;;;;;;0.57;0.50;;;5.90;99.90;;;;;;4936437;29;20435;-76
2022/01/18 11:56:31;;;;;;;0.50;0.50;;;5.90;99.90;;;;;;4905023;29;20498;-76
2022/01/18 11:59:14;;;;;;;0.50;0.40;;;5.90;99.90;;;;;;4936339;29;20440;-76
2022/01/18 12:01:50;;;;;;;0.30;0.30;;;6.00;99.90;;;;;;4936058;29;20431;-76
2022/01/18 12:05:11;;;;;;;0.30;0.20;;;6.10;99.90;;;;;;4936177;29;20498;-79
2022/01/18 12:07:53;;;;;;;0.40;0.40;;;6.00;99.90;;;;;;4936261;29;20466;-78
2022/01/18 12:10:43;;;;;;;0.30;0.20;;;6.10;99.90;;;;;;4936245;29;20507;-78
2022/01/18 12:13:14;;;;;;;0.43;0.43;;;6.20;99.90;;;;;;4936134;29;20439;-78
2022/01/18 12:15:50;;;;;;;0.30;0.20;;;6.20;99.90;;;;;;4935907;29;20442;-79
2022/01/18 12:18:19;;;;;;;0.40;0.40;;;6.20;99.90;;;;;;4935860;29;21013;-78
2022/01/18 12:20:47;;;;;;;2.53;0.70;;;6.20;99.90;;;;;;4936681;29;20439;-80
2022/01/18 12:23:17;;;;;;;0.30;0.30;;;6.20;99.90;;;;;;4936012;29;20436;-79
2022/01/18 12:25:55;;;;;;;0.30;0.20;;;6.10;99.90;;;;;;4936059;29;20478;-78
2022/01/18 12:28:55;;;;;;;0.40;0.37;;;6.10;99.90;;;;;;4936051;29;20799;-78
2022/01/18 12:34:38;;;;;;;0.83;0.50;;;6.10;99.90;;;;;;4904072;29;20447;-78
2022/01/18 12:37:34;;;;;;;0.60;0.60;;;5.90;99.90;;;;;;4936231;29;20450;-78
2022/01/18 12:40:10;;;;;;;0.30;0.20;;;5.90;99.90;;;;;;4935953;29;20459;-78
2022/01/18 12:45:26;;;;;;;0.30;0.30;;;6.00;99.90;;;;;;4935622;29;20486;-78
2022/01/18 12:47:57;;;;;;;0.40;0.30;;;6.00;99.90;;;;;;4935931;29;20439;-78
2022/01/18 12:50:26;;;;;;;0.40;0.30;;;5.90;99.90;;;;;;4935627;29;20498;-78
2022/01/18 12:52:56;;;;;;;0.30;0.30;;;6.00;99.90;;;;;;4935861;29;20436;-78
2022/01/18 12:55:28;;;;;;;0.30;0.30;;;5.90;99.90;;;;;;4935418;29;20596;-78
2022/01/18 12:57:59;;;;;;;4.30;0.50;;;6.00;99.90;;;;;;4935828;29;20436;-78
2022/01/18 13:00:28;;;;;;;0.40;0.40;;;6.00;99.90;;;;;;4935805;29;20503;-78
2022/01/18 13:02:59;;;;;;;0.77;0.77;;;6.10;99.90;;;;;;4935810;29;20451;-78
2022/01/18 13:05:38;;;;;;;0.30;0.30;;;6.00;99.90;;;;;;4935631;29;20495;-78
2022/01/18 13:08:05;;;;;;;0.30;0.20;;;6.00;99.90;;;;;;4935759;29;20446;-78
2022/01/18 13:10:38;;;;;;;0.30;0.20;;;5.90;99.90;;;;;;4935415;29;20446;-78
2022/01/18 13:13:05;;;;;;;0.30;0.20;;;5.90;99.90;;;;;;4935366;29;20831;-78
2022/01/18 13:15:52;;;;;;;0.60;0.40;;;5.90;99.90;;;;;;4936410;29;20482;-78
2022/01/18 13:23:59;;;;;;;0.40;0.30;;;6.00;99.90;;;;;;4939067;29;20470;-78
2022/01/18 13:26:32;;;;;;;0.40;0.40;;;5.90;99.90;;;;;;4938996;29;20482;-78
2022/01/18 13:29:11;;;;;;;0.40;0.40;;;5.80;99.90;;;;;;4938728;29;20435;-78
2022/01/18 13:31:41;;;;;;;0.30;0.20;;;5.80;99.90;;;;;;4938647;29;20940;-78
2022/01/18 13:34:11;;;;;;;0.87;0.43;;;5.70;99.90;;;;;;4938842;29;20510;-78
2022/01/18 13:37:01;;;;;;;3.03;2.93;;;5.70;99.90;;;;;;4938574;29;20439;-78
2022/01/18 13:39:31;;;;;;;0.50;0.50;;;5.50;99.90;;;;;;4933769;29;20876;-78
2022/01/18 13:42:00;;;;;;;0.30;0.30;;;5.40;99.90;;;;;;4938483;29;20443;-78
2022/01/18 13:44:27;;;;;;;0.60;0.60;;;5.40;99.90;;;;;;4938588;29;20503;-78
2022/01/18 13:46:55;;;;;;;0.33;0.30;;;5.50;99.90;;;;;;4938633;29;20451;-78
2022/01/18 13:49:24;;;;;;;0.60;0.33;;;5.60;99.90;;;;;;4939433;29;20435;-78
2022/01/18 13:52:01;;;;;;;1.03;0.50;;;5.80;99.90;;;;;;4938567;29;20463;-78
2022/01/18 13:54:42;;;;;;;0.30;0.30;;;5.90;99.90;;;;;;4938266;29;20542;-78
2022/01/18 13:57:08;;;;;;;0.30;0.20;;;5.90;99.90;;;;;;4938199;29;20435;-78
2022/01/18 13:59:35;;;;;;;0.63;0.63;;;6.00;99.90;;;;;;4938474;29;20447;-78
2022/01/18 14:02:11;;;;;;;0.30;0.30;;;6.00;99.90;;;;;;4938423;29;20437;-78
2022/01/18 14:04:38;;;;;;;0.30;0.20;;;6.10;99.90;;;;;;4938229;29;20474;-78
2022/01/18 14:07:06;;;;;;;0.40;0.40;;;6.00;99.90;;;;;;4938330;29;20447;-78
2022/01/18 14:09:32;;;;;;;0.40;0.30;;;6.00;99.90;;;;;;4938308;29;20431;-78